Time;durP1;ratioP1;P1;durP2;ratioP2;P2;SDS_P1;SDS_P2;PMS_P1;PMS_P2;Temp;Humidity;BMP_temperature;BMP_pressure;BME280_temperature;BME280_humidity;BME280_pressure;Samples;Min_cycle;Max_cycle;Signal;HPM_P1;HPM_P2
2022/08/07 00:01:54;;;;;;;;;;;;;;;17.50;48.18;97277.97;6224018;28;19925;-65
2022/08/07 00:04:55;;;;;;;;;;;;;;;17.45;47.45;97282.84;6224775;28;19925;-66
2022/08/07 00:07:59;;;;;;;;;;;;;;;17.39;47.04;97282.56;6224588;28;20269;-66
2022/08/07 00:11:00;;;;;;;;;;;;;;;17.34;47.55;97282.09;6224302;28;19925;-65
2022/08/07 00:14:05;;;;;;;;;;;;;;;17.34;47.51;97276.78;6223761;28;20415;-65
2022/08/07 00:17:09;;;;;;;;;;;;;;;17.32;48.80;97287.53;6224102;28;19941;-65
2022/08/07 00:20:14;;;;;;;;;;;;;;;17.32;47.42;97284.88;6223528;28;20372;-65
2022/08/07 00:23:21;;;;;;;;;;;;;;;17.30;47.48;97292.16;6222910;28;20051;-65
2022/08/07 00:26:22;;;;;;;;;;;;;;;17.22;49.56;97291.97;6223820;28;20399;-65
2022/08/07 00:29:28;;;;;;;;;;;;;;;17.17;47.71;97291.50;6223948;28;19934;-65
2022/08/07 00:32:31;;;;;;;;;;;;;;;17.13;50.08;97290.09;6223666;28;19925;-66
2022/08/07 00:35:34;;;;;;;;;;;;;;;17.15;51.16;97288.13;6223701;28;19926;-67
2022/08/07 00:38:38;;;;;;;;;;;;;;;17.20;51.52;97285.94;6223766;28;20395;-66
2022/08/07 00:41:55;;;;;;;;;;;;;;;17.23;48.53;97285.66;6223695;28;19929;-65
2022/08/07 00:44:56;;;;;;;;;;;;;;;17.22;48.54;97289.31;6223522;28;20399;-66
2022/08/07 00:47:59;;;;;;;;;;;;;;;17.20;49.25;97291.25;6222980;28;20296;-66
2022/08/07 00:51:05;;;;;;;;;;;;;;;17.23;48.03;97288.31;6223350;28;19925;-66
2022/08/07 00:54:13;;;;;;;;;;;;;;;17.23;47.78;97285.66;6223162;28;19925;-66
2022/08/07 00:57:20;;;;;;;;;;;;;;;17.17;47.63;97286.19;6223089;28;19929;-65
2022/08/07 01:00:24;;;;;;;;;;;;;;;17.14;47.69;97289.13;6223177;28;19932;-66
2022/08/07 01:03:28;;;;;;;;;;;;;;;17.13;48.06;97290.09;6222268;28;20326;-65
2022/08/07 01:06:29;;;;;;;;;;;;;;;17.14;48.87;97289.94;6222912;28;19925;-66
2022/08/07 01:09:32;;;;;;;;;;;;;;;17.18;49.15;97301.16;6222736;28;20402;-65
2022/08/07 01:12:34;;;;;;;;;;;;;;;17.23;48.34;97298.97;6222634;28;19932;-66
2022/08/07 01:15:40;;;;;;;;;;;;;;;17.28;50.75;97299.41;6222909;28;19984;-65
2022/08/07 01:18:42;;;;;;;;;;;;;;;17.33;47.72;97291.91;6222332;28;19933;-65
2022/08/07 01:21:44;;;;;;;;;;;;;;;17.40;48.46;97297.53;6222784;28;20400;-65
2022/08/07 01:24:48;;;;;;;;;;;;;;;17.47;48.42;97298.69;6222453;28;20056;-66
2022/08/07 01:27:49;;;;;;;;;;;;;;;17.53;47.30;97294.66;6222015;28;19932;-66
2022/08/07 01:30:51;;;;;;;;;;;;;;;17.63;47.74;97298.19;6221872;28;19925;-66
2022/08/07 01:33:52;;;;;;;;;;;;;;;17.75;47.00;97302.47;6222120;28;20306;-66
2022/08/07 01:36:56;;;;;;;;;;;;;;;17.81;46.88;97299.31;6222217;28;20034;-65
2022/08/07 01:40:01;;;;;;;;;;;;;;;17.82;47.27;97298.31;6222452;28;20303;-65
2022/08/07 01:43:02;;;;;;;;;;;;;;;17.87;46.95;97296.09;6221710;28;19925;-66
2022/08/07 01:46:03;;;;;;;;;;;;;;;17.90;46.79;97301.16;6221613;28;20334;-66
2022/08/07 01:49:05;;;;;;;;;;;;;;;17.94;47.69;97310.53;6222215;28;19925;-65
2022/08/07 01:52:11;;;;;;;;;;;;;;;17.99;48.12;97310.16;6221926;28;19921;-65
2022/08/07 01:55:15;;;;;;;;;;;;;;;18.08;46.94;97303.16;6221794;28;19926;-65
2022/08/07 01:58:18;;;;;;;;;;;;;;;18.22;49.26;97309.94;6221865;28;19933;-67
2022/08/07 02:01:24;;;;;;;;;;;;;;;18.35;46.39;97310.53;6221847;28;19926;-65
2022/08/07 02:04:31;;;;;;;;;;;;;;;18.46;46.46;97312.25;6221963;28;19926;-65
2022/08/07 02:07:36;;;;;;;;;;;;;;;18.53;47.31;97308.03;6221680;28;20433;-65
2022/08/07 02:10:40;;;;;;;;;;;;;;;18.66;46.04;97308.63;6221853;28;19933;-66
2022/08/07 02:14:06;;;;;;;;;;;;;;;18.78;46.17;97312.00;6220269;28;19929;-65
2022/08/07 02:17:12;;;;;;;;;;;;;;;18.88;46.02;97312.00;6221708;28;19926;-66
2022/08/07 02:20:16;;;;;;;;;;;;;;;18.97;45.96;97316.50;6221524;28;19925;-66
2022/08/07 02:23:19;;;;;;;;;;;;;;;19.04;46.34;97312.28;6221593;28;19926;-66
2022/08/07 02:26:20;;;;;;;;;;;;;;;19.12;45.97;97309.75;6221466;28;19925;-65
2022/08/07 02:29:21;;;;;;;;;;;;;;;19.18;46.07;97317.19;6221435;28;20311;-65
2022/08/07 02:32:25;;;;;;;;;;;;;;;19.23;46.01;97322.94;6221348;28;19929;-65
2022/08/07 02:35:31;;;;;;;;;;;;;;;19.31;46.07;97316.06;6221073;28;19925;-65
2022/08/07 02:38:35;;;;;;;;;;;;;;;19.38;46.25;97319.81;6221632;28;20030;-65
2022/08/07 02:41:39;;;;;;;;;;;;;;;19.47;45.69;97326.94;6221724;28;19921;-67
2022/08/07 02:44:43;;;;;;;;;;;;;;;19.56;47.16;97323.44;6226215;28;19925;-66
2022/08/07 02:47:47;;;;;;;;;;;;;;;19.67;45.55;97315.28;6226004;28;19929;-66
2022/08/07 02:50:51;;;;;;;;;;;;;;;19.76;45.66;97318.06;6225759;28;19925;-66
2022/08/07 02:53:54;;;;;;;;;;;;;;;19.85;45.71;97325.22;6225939;28;19980;-65
2022/08/07 02:56:59;;;;;;;;;;;;;;;19.90;45.17;97331.78;6225932;28;19930;-65
2022/08/07 03:00:03;;;;;;;;;;;;;;;20.00;45.36;97330.91;6225960;28;19921;-65
2022/08/07 03:03:06;;;;;;;;;;;;;;;20.12;45.09;97333.22;6225702;28;19965;-65
2022/08/07 03:06:07;;;;;;;;;;;;;;;20.28;44.59;97331.75;6225559;28;20295;-65
2022/08/07 03:09:09;;;;;;;;;;;;;;;20.44;44.48;97333.75;6225239;28;19931;-66
2022/08/07 03:12:11;;;;;;;;;;;;;;;20.55;44.89;97337.13;6225033;28;19933;-67
2022/08/07 03:15:12;;;;;;;;;;;;;;;20.67;44.42;97339.56;6225480;28;19925;-65
2022/08/07 03:18:17;;;;;;;;;;;;;;;20.83;44.41;97332.56;6225450;28;20387;-65
2022/08/07 03:21:18;;;;;;;;;;;;;;;20.94;44.33;97330.63;6225176;28;19925;-65
2022/08/07 03:24:24;;;;;;;;;;;;;;;21.04;44.07;97334.91;6225784;28;19926;-66
2022/08/07 03:27:29;;;;;;;;;;;;;;;21.18;43.47;97327.34;6225618;28;20022;-65
2022/08/07 03:30:31;;;;;;;;;;;;;;;21.34;43.44;97316.75;6225497;28;20411;-65
2022/08/07 03:33:33;;;;;;;;;;;;;;;21.48;43.26;97324.22;6225121;28;19926;-64
2022/08/07 03:36:39;;;;;;;;;;;;;;;21.65;43.25;97313.63;6223800;28;19980;-65
2022/08/07 03:39:46;;;;;;;;;;;;;;;21.80;43.02;97324.59;6224910;28;19956;-66
2022/08/07 03:42:48;;;;;;;;;;;;;;;21.97;42.82;97327.22;6224448;28;20414;-65
2022/08/07 03:45:51;;;;;;;;;;;;;;;22.12;42.33;97315.91;6224433;28;19931;-65
2022/08/07 03:48:55;;;;;;;;;;;;;;;22.23;42.19;97328.22;6224599;28;19932;-66
2022/08/07 03:52:06;;;;;;;;;;;;;;;22.29;42.35;97323.03;6224528;28;19925;-66
2022/08/07 03:55:07;;;;;;;;;;;;;;;22.37;42.07;97320.38;6222592;28;19987;-65
2022/08/07 03:58:10;;;;;;;;;;;;;;;22.48;41.97;97321.09;6224495;28;19925;-65
2022/08/07 04:01:14;;;;;;;;;;;;;;;22.66;41.68;97324.47;6224378;28;19925;-65
2022/08/07 04:04:20;;;;;;;;;;;;;;;22.83;41.43;97325.34;6224388;28;19925;-66
2022/08/07 04:07:23;;;;;;;;;;;;;;;23.01;41.20;97322.53;6224280;28;20012;-65
2022/08/07 04:10:24;;;;;;;;;;;;;;;23.21;41.10;97323.03;6223441;28;19932;-65
2022/08/07 04:13:27;;;;;;;;;;;;;;;23.42;40.77;97325.25;6223777;28;19925;-65
2022/08/07 04:16:31;;;;;;;;;;;;;;;23.58;40.38;97327.91;6224047;28;19925;-65
2022/08/07 04:19:35;;;;;;;;;;;;;;;23.76;40.00;97327.72;6223858;28;19925;-68
2022/08/07 04:22:36;;;;;;;;;;;;;;;23.87;40.06;97324.69;6223823;28;19930;-66
2022/08/07 04:25:40;;;;;;;;;;;;;;;24.04;39.55;97324.66;6223897;28;19925;-66
2022/08/07 04:28:46;;;;;;;;;;;;;;;24.31;39.36;97320.66;6223738;28;19925;-66
2022/08/07 04:31:47;;;;;;;;;;;;;;;24.35;39.15;97322.84;6223686;28;19932;-65
2022/08/07 04:34:49;;;;;;;;;;;;;;;24.52;38.92;97323.63;6223026;28;19928;-66
2022/08/07 04:37:53;;;;;;;;;;;;;;;24.54;39.20;97326.13;6223276;28;19926;-66
2022/08/07 04:40:57;;;;;;;;;;;;;;;24.67;38.74;97326.38;6223359;28;19929;-65
2022/08/07 04:44:01;;;;;;;;;;;;;;;24.97;38.49;97322.00;6223419;28;19925;-65
2022/08/07 04:47:06;;;;;;;;;;;;;;;25.12;38.38;97323.91;6223162;28;19932;-65
2022/08/07 04:50:18;;;;;;;;;;;;;;;25.58;37.86;97322.00;6223335;28;19948;-66
2022/08/07 04:53:24;;;;;;;;;;;;;;;28.59;33.76;97336.56;6223193;28;19926;-65
2022/08/07 04:56:38;;;;;;;;;;;;;;;32.57;29.43;97348.94;6222662;28;20318;-65
2022/08/07 05:00:00;;;;;;;;;;;;;;;36.39;25.25;97347.41;6223153;28;20433;-66
2022/08/07 05:03:14;;;;;;;;;;;;;;;39.38;22.68;97352.28;6222785;28;19925;-65
2022/08/07 05:06:21;;;;;;;;;;;;;;;41.57;20.32;97364.72;6221804;28;20011;-66
2022/08/07 05:09:31;;;;;;;;;;;;;;;43.37;19.43;97349.78;6222872;28;19929;-65
2022/08/07 05:12:43;;;;;;;;;;;;;;;44.89;17.13;97351.00;6222353;28;19926;-65
2022/08/07 05:15:48;;;;;;;;;;;;;;;45.89;16.61;97345.34;6222963;28;20352;-66
2022/08/07 05:18:53;;;;;;;;;;;;;;;47.19;16.03;97347.84;6222379;28;19925;-65
2022/08/07 05:21:57;;;;;;;;;;;;;;;48.60;14.65;97352.94;6221181;28;19925;-65
2022/08/07 05:24:59;;;;;;;;;;;;;;;49.74;14.10;97358.59;6221213;28;19929;-65
2022/08/07 05:28:03;;;;;;;;;;;;;;;50.35;13.95;97358.00;6222481;28;20008;-66
2022/08/07 05:31:07;;;;;;;;;;;;;;;50.69;13.39;97360.38;6222347;28;19926;-65
2022/08/07 05:34:13;;;;;;;;;;;;;;;51.56;13.41;97352.66;6222311;28;19925;-65
2022/08/07 05:37:20;;;;;;;;;;;;;;;52.25;12.55;97350.59;6222361;28;19929;-65
2022/08/07 05:40:22;;;;;;;;;;;;;;;52.56;11.54;97354.59;6221758;28;19929;-66
2022/08/07 05:43:26;;;;;;;;;;;;;;;52.81;10.07;97339.19;6222058;28;19925;-65
2022/08/07 05:46:27;;;;;;;;;;;;;;;52.53;9.62;97345.72;6221829;28;19932;-67
2022/08/07 05:49:32;;;;;;;;;;;;;;;52.77;9.79;97343.09;6222079;28;20380;-65
2022/08/07 05:52:36;;;;;;;;;;;;;;;52.57;9.21;97328.94;6221456;28;19933;-66
2022/08/07 05:55:39;;;;;;;;;;;;;;;50.64;10.64;97332.59;6221338;28;20441;-66
2022/08/07 05:58:42;;;;;;;;;;;;;;;49.53;11.39;97316.66;6221542;28;20309;-66
2022/08/07 06:01:48;;;;;;;;;;;;;;;50.13;10.45;97320.03;6222045;28;20298;-65
2022/08/07 06:04:56;;;;;;;;;;;;;;;50.53;10.46;97317.41;6221613;28;19926;-65
2022/08/07 06:08:01;;;;;;;;;;;;;;;51.80;8.89;97313.28;6221917;28;19971;-66
2022/08/07 06:11:06;;;;;;;;;;;;;;;52.65;8.79;97310.28;6221461;28;20314;-65
2022/08/07 06:14:12;;;;;;;;;;;;;;;53.23;8.02;97316.06;6221542;28;19925;-65
2022/08/07 06:17:18;;;;;;;;;;;;;;;54.61;7.15;97316.25;6221303;28;20032;-65
2022/08/07 06:20:22;;;;;;;;;;;;;;;56.13;6.58;97317.06;6220996;28;20068;-65
2022/08/07 06:23:23;;;;;;;;;;;;;;;56.10;7.11;97309.38;6221349;28;20350;-64
2022/08/07 06:26:30;;;;;;;;;;;;;;;56.39;6.41;97311.25;6221108;28;19925;-64
2022/08/07 06:29:32;;;;;;;;;;;;;;;56.46;6.21;97308.50;6221550;28;19929;-64
2022/08/07 06:32:34;;;;;;;;;;;;;;;55.96;6.49;97299.56;6221344;28;19932;-65
2022/08/07 06:35:37;;;;;;;;;;;;;;;56.16;6.39;97307.81;6221410;28;19929;-65
2022/08/07 06:38:41;;;;;;;;;;;;;;;56.14;6.08;97293.25;6221295;28;19926;-65
2022/08/07 06:41:46;;;;;;;;;;;;;;;56.78;5.80;97293.78;6220985;28;19925;-66
2022/08/07 06:44:50;;;;;;;;;;;;;;;57.48;5.55;97305.13;6221016;28;20028;-66
2022/08/07 06:47:54;;;;;;;;;;;;;;;54.89;6.17;97286.91;6221024;28;20351;-66
2022/08/07 06:50:58;;;;;;;;;;;;;;;50.56;8.00;97271.88;6221314;28;19944;-65
2022/08/07 06:54:03;;;;;;;;;;;;;;;46.03;10.87;97266.59;6221192;28;19932;-65
2022/08/07 06:57:08;;;;;;;;;;;;;;;43.43;12.46;97244.16;6220987;28;19925;-66
2022/08/07 07:00:09;;;;;;;;;;;;;;;42.30;12.91;97238.56;6220899;28;19944;-66
2022/08/07 07:03:14;;;;;;;;;;;;;;;41.29;13.32;97239.25;6220722;28;19965;-66
2022/08/07 07:06:15;;;;;;;;;;;;;;;43.88;11.44;97232.53;6220975;28;19929;-66
2022/08/07 07:09:18;;;;;;;;;;;;;;;46.98;9.96;97244.59;6220713;28;19944;-65
2022/08/07 07:12:33;;;;;;;;;;;;;;;48.79;8.83;97249.97;6219394;28;19995;-66
2022/08/07 07:15:35;;;;;;;;;;;;;;;48.02;9.63;97251.22;6220586;28;19933;-65
2022/08/07 07:18:52;;;;;;;;;;;;;;;47.90;9.71;97249.09;6220777;28;19925;-65
2022/08/07 07:21:56;;;;;;;;;;;;;;;46.19;10.35;97242.75;6220798;28;20355;-66
2022/08/07 07:25:00;;;;;;;;;;;;;;;43.63;12.15;97231.91;6220429;28;19926;-65
2022/08/07 07:28:03;;;;;;;;;;;;;;;41.31;13.00;97228.75;6220750;28;19925;-65
2022/08/07 07:31:06;;;;;;;;;;;;;;;39.19;14.38;97226.19;6223273;28;19932;-65
2022/08/07 07:34:14;;;;;;;;;;;;;;;38.31;15.38;97223.50;6224815;28;19932;-65
2022/08/07 07:37:20;;;;;;;;;;;;;;;38.68;15.07;97217.84;6224824;28;19926;-65
2022/08/07 07:40:21;;;;;;;;;;;;;;;39.01;14.88;97223.97;6224579;28;19926;-65
2022/08/07 07:43:26;;;;;;;;;;;;;;;38.52;15.14;97216.97;6224810;28;19926;-65
2022/08/07 07:46:29;;;;;;;;;;;;;;;38.79;14.70;97211.28;6224682;28;20290;-64
2022/08/07 07:49:34;;;;;;;;;;;;;;;40.31;14.25;97213.34;6224379;28;19925;-65
2022/08/07 07:52:38;;;;;;;;;;;;;;;41.40;13.45;97221.50;6224903;28;19929;-65
2022/08/07 07:55:39;;;;;;;;;;;;;;;41.73;13.58;97221.75;6224477;28;19933;-65
2022/08/07 07:58:44;;;;;;;;;;;;;;;41.86;13.77;97218.28;6224323;28;19925;-65
2022/08/07 08:01:47;;;;;;;;;;;;;;;44.36;12.14;97226.66;6224024;28;20318;-64
2022/08/07 08:04:49;;;;;;;;;;;;;;;46.67;10.70;97224.44;6223715;28;19934;-65
2022/08/07 08:07:53;;;;;;;;;;;;;;;49.13;9.75;97238.91;6223877;28;20303;-65
2022/08/07 08:10:58;;;;;;;;;;;;;;;50.90;8.73;97245.34;6223814;28;20298;-65
2022/08/07 08:14:04;;;;;;;;;;;;;;;51.51;8.49;97237.94;6223612;28;19925;-66
2022/08/07 08:17:08;;;;;;;;;;;;;;;49.57;8.99;97225.31;6223992;28;20051;-65
2022/08/07 08:20:13;;;;;;;;;;;;;;;47.02;10.97;97231.66;6223966;28;19925;-66
2022/08/07 08:30:10;;;;;;;;;;;;;;;45.65;11.66;97219.75;6223815;28;20446;-65
2022/08/07 08:33:17;;;;;;;;;;;;;;;48.25;9.97;97219.09;6223222;28;20414;-65
2022/08/07 08:36:19;;;;;;;;;;;;;;;50.64;8.90;97223.34;6223498;28;19929;-65
2022/08/07 08:39:24;;;;;;;;;;;;;;;52.21;7.77;97223.34;6222617;28;19925;-65
2022/08/07 08:42:39;;;;;;;;;;;;;;;52.93;7.50;97218.19;6223517;28;19926;-65
2022/08/07 08:45:41;;;;;;;;;;;;;;;53.16;7.49;97223.91;6223018;28;19925;-65
2022/08/07 08:48:46;;;;;;;;;;;;;;;53.53;7.65;97222.66;6222917;28;19925;-65
2022/08/07 08:51:58;;;;;;;;;;;;;;;54.61;7.21;97226.09;6223054;28;19926;-64
2022/08/07 08:55:23;;;;;;;;;;;;;;;55.67;6.29;97232.72;6222557;28;19932;-65
2022/08/07 08:58:43;;;;;;;;;;;;;;;56.43;5.83;97227.34;6222858;28;19925;-65
2022/08/07 09:02:02;;;;;;;;;;;;;;;55.84;6.32;97225.63;6223455;28;20395;-65
2022/08/07 09:05:22;;;;;;;;;;;;;;;54.31;6.84;97222.41;6222948;28;19926;-65
2022/08/07 09:08:47;;;;;;;;;;;;;;;53.82;6.91;97207.09;6222524;28;20410;-65
2022/08/07 09:11:57;;;;;;;;;;;;;;;53.57;6.83;97213.09;6216910;28;19948;-65
2022/08/07 09:15:04;;;;;;;;;;;;;;;53.70;7.08;97202.47;6222668;28;19948;-65
2022/08/07 09:18:10;;;;;;;;;;;;;;;52.96;7.28;97206.22;6222653;28;19922;-65
2022/08/07 09:21:18;;;;;;;;;;;;;;;48.61;9.21;97189.00;6222509;28;20020;-65
2022/08/07 09:24:37;;;;;;;;;;;;;;;44.76;11.55;97179.72;6221955;28;19964;-66
2022/08/07 09:27:50;;;;;;;;;;;;;;;44.85;11.46;97175.06;6222230;28;19926;-66
2022/08/07 09:30:57;;;;;;;;;;;;;;;47.14;10.13;97166.94;6222651;28;19926;-66
2022/08/07 09:33:58;;;;;;;;;;;;;;;48.47;9.50;97178.06;6221823;28;20346;-65
2022/08/07 09:37:08;;;;;;;;;;;;;;;48.59;9.53;97163.41;6222030;28;19948;-65
2022/08/07 09:40:30;;;;;;;;;;;;;;;47.60;10.20;97161.75;6221999;28;20027;-65
2022/08/07 09:43:46;;;;;;;;;;;;;;;47.87;9.75;97163.31;6222050;28;20323;-66
2022/08/07 09:46:58;;;;;;;;;;;;;;;49.11;9.17;97162.97;6222163;28;19926;-65
2022/08/07 09:50:09;;;;;;;;;;;;;;;49.57;9.07;97163.81;6221361;28;19987;-66
2022/08/07 09:53:14;;;;;;;;;;;;;;;50.25;8.87;97161.31;6221152;28;19925;-66
2022/08/07 09:56:23;;;;;;;;;;;;;;;50.70;8.75;97165.91;6221733;28;19925;-65
2022/08/07 09:59:24;;;;;;;;;;;;;;;49.02;9.42;97156.66;6221815;28;20019;-66
2022/08/07 10:02:28;;;;;;;;;;;;;;;46.46;10.96;97157.41;6221514;28;20409;-65
2022/08/07 10:05:32;;;;;;;;;;;;;;;44.83;11.83;97145.97;6221728;28;20335;-66
2022/08/07 10:08:54;;;;;;;;;;;;;;;42.47;13.88;97139.34;6221850;28;19925;-65
2022/08/07 10:12:06;;;;;;;;;;;;;;;42.08;14.16;97136.81;6220087;28;19925;-66
2022/08/07 10:15:22;;;;;;;;;;;;;;;44.93;11.80;97135.44;6221588;28;20000;-65
2022/08/07 10:18:42;;;;;;;;;;;;;;;47.46;10.46;97132.13;6220970;28;19921;-66
2022/08/07 10:22:05;;;;;;;;;;;;;;;48.27;10.08;97130.28;6221335;28;19925;-65
2022/08/07 10:25:29;;;;;;;;;;;;;;;48.17;10.19;97124.28;6221397;28;19925;-65
2022/08/07 10:28:40;;;;;;;;;;;;;;;47.16;11.03;97125.63;6219419;28;19931;-65
2022/08/07 10:31:47;;;;;;;;;;;;;;;46.99;11.02;97134.00;6221211;28;19941;-68
2022/08/07 10:34:48;;;;;;;;;;;;;;;46.55;10.97;97122.06;6221103;28;20387;-66
2022/08/07 10:37:51;;;;;;;;;;;;;;;46.71;10.91;97114.88;6220907;28;20088;-65
2022/08/07 10:41:01;;;;;;;;;;;;;;;45.26;11.75;97110.16;6220443;28;19925;-67
2022/08/07 10:44:02;;;;;;;;;;;;;;;44.29;12.37;97105.00;6220456;28;19925;-65
2022/08/07 10:47:11;;;;;;;;;;;;;;;44.96;11.75;97100.69;6221120;28;19926;-65
2022/08/07 10:50:20;;;;;;;;;;;;;;;46.35;11.07;97110.44;6220711;28;19965;-66
2022/08/07 10:53:33;;;;;;;;;;;;;;;47.36;10.64;97112.13;6220476;28;19999;-65
2022/08/07 10:56:40;;;;;;;;;;;;;;;47.36;10.46;97112.13;6220821;28;19926;-65
2022/08/07 10:59:59;;;;;;;;;;;;;;;46.94;10.63;97103.53;6220852;28;20012;-65
2022/08/07 11:03:10;;;;;;;;;;;;;;;45.15;11.67;97097.69;6222659;28;19991;-65
2022/08/07 11:06:16;;;;;;;;;;;;;;;42.81;13.28;97100.34;6225730;28;19925;-65
2022/08/07 11:09:33;;;;;;;;;;;;;;;41.22;14.09;97086.91;6225581;28;19932;-65
2022/08/07 11:12:51;;;;;;;;;;;;;;;39.82;15.27;97076.31;6225575;28;19932;-65
2022/08/07 11:15:54;;;;;;;;;;;;;;;38.90;16.03;97073.75;6225379;28;19933;-67
2022/08/07 11:19:10;;;;;;;;;;;;;;;38.34;16.61;97069.03;6225383;28;19925;-66
2022/08/07 11:22:11;;;;;;;;;;;;;;;37.41;18.07;97078.84;6225093;28;19931;-66
2022/08/07 11:25:15;;;;;;;;;;;;;;;36.71;18.64;97074.50;6225330;28;19925;-66
2022/08/07 11:28:36;;;;;;;;;;;;;;;36.63;18.91;97067.56;6224999;28;19936;-64
2022/08/07 11:31:45;;;;;;;;;;;;;;;36.88;18.79;97074.34;6217226;28;19929;-65
2022/08/07 11:34:49;;;;;;;;;;;;;;;37.39;18.52;97070.03;6224646;28;19929;-66
2022/08/07 11:38:31;;;;;;;;;;;;;;;37.64;18.35;97065.78;6225111;28;19925;-66
2022/08/07 11:41:53;;;;;;;;;;;;;;;37.62;18.09;97065.22;6173340;28;20430;-66
2022/08/07 11:49:07;;;;;;;;;;;;;;;38.35;17.40;97060.50;6225092;28;19937;-66
2022/08/07 11:52:08;;;;;;;;;;;;;;;38.97;17.05;97063.31;6224369;28;20414;-65
2022/08/07 11:55:34;;;;;;;;;;;;;;;39.47;16.67;97064.31;6224139;28;19929;-65
2022/08/07 11:58:59;;;;;;;;;;;;;;;39.29;16.73;97058.28;6224211;28;19925;-64
2022/08/07 12:02:06;;;;;;;;;;;;;;;38.90;17.20;97054.50;6216794;28;20326;-65
2022/08/07 12:05:38;;;;;;;;;;;;;;;38.72;17.03;97053.94;6224381;28;20306;-66
2022/08/07 12:08:51;;;;;;;;;;;;;;;38.81;17.01;97046.78;6223992;28;20001;-66
2022/08/07 12:11:58;;;;;;;;;;;;;;;38.89;16.91;97056.41;6223686;28;19930;-65
2022/08/07 12:15:07;;;;;;;;;;;;;;;38.64;16.77;97046.22;6223434;28;19925;-65
2022/08/07 12:18:14;;;;;;;;;;;;;;;38.83;16.90;97047.31;6223492;28;20391;-65
2022/08/07 12:21:36;;;;;;;;;;;;;;;39.13;16.54;97045.66;6223701;28;19933;-66
2022/08/07 12:28:20;;;;;;;;;;;;;;;38.89;16.60;97041.84;6223568;28;19993;-65
2022/08/07 12:31:35;;;;;;;;;;;;;;;38.72;16.42;97036.63;6223619;28;19930;-65
2022/08/07 12:34:42;;;;;;;;;;;;;;;38.45;17.03;97037.72;6223485;28;20327;-65
2022/08/07 12:37:46;;;;;;;;;;;;;;;38.06;17.39;97037.38;6223536;28;20302;-67
2022/08/07 12:40:48;;;;;;;;;;;;;;;37.90;17.52;97039.22;6223250;28;20087;-66
2022/08/07 12:43:54;;;;;;;;;;;;;;;38.12;17.02;97031.63;6223266;28;19932;-65
2022/08/07 12:47:13;;;;;;;;;;;;;;;38.50;17.02;97035.00;6222880;28;19921;-65
2022/08/07 12:50:35;;;;;;;;;;;;;;;38.91;16.69;97042.41;6223423;28;19925;-65
2022/08/07 12:53:40;;;;;;;;;;;;;;;38.94;16.73;97039.91;6223289;28;19925;-64
2022/08/07 12:56:45;;;;;;;;;;;;;;;39.14;16.83;97041.78;6222853;28;19957;-65
2022/08/07 12:59:47;;;;;;;;;;;;;;;39.07;16.79;97033.03;6222374;28;19932;-65
2022/08/07 13:03:07;;;;;;;;;;;;;;;38.96;16.88;97036.91;6222088;28;20383;-67
2022/08/07 13:06:13;;;;;;;;;;;;;;;38.56;17.12;97035.81;6222796;28;20318;-65
2022/08/07 13:09:32;;;;;;;;;;;;;;;37.41;18.64;97025.88;6222491;28;19932;-65
2022/08/07 13:12:39;;;;;;;;;;;;;;;36.44;19.37;97023.28;6222076;28;19932;-64
2022/08/07 13:15:53;;;;;;;;;;;;;;;35.46;20.14;97018.66;6222162;28;19932;-65
2022/08/07 13:19:05;;;;;;;;;;;;;;;34.48;21.24;97022.94;6221997;28;19973;-65
2022/08/07 13:22:13;;;;;;;;;;;;;;;33.77;21.97;97026.03;6222223;28;20020;-65
2022/08/07 13:25:22;;;;;;;;;;;;;;;33.03;22.65;97021.22;6222283;28;19934;-65
2022/08/07 13:28:34;;;;;;;;;;;;;;;32.63;23.39;97024.66;6221133;28;19925;-65
2022/08/07 13:31:45;;;;;;;;;;;;;;;32.37;23.25;97030.53;6221873;28;19933;-66
2022/08/07 13:34:49;;;;;;;;;;;;;;;32.24;23.52;97034.28;6221245;28;19929;-65
2022/08/07 13:38:15;;;;;;;;;;;;;;;32.16;23.46;97026.47;6221833;28;20588;-66
2022/08/07 13:41:30;;;;;;;;;;;;;;;32.02;24.04;97031.28;6221891;28;19929;-65
2022/08/07 13:44:35;;;;;;;;;;;;;;;31.81;24.80;97034.47;6221725;28;20308;-67
2022/08/07 13:47:41;;;;;;;;;;;;;;;31.59;24.58;97037.69;6221687;28;20075;-66
2022/08/07 13:50:42;;;;;;;;;;;;;;;31.54;24.45;97043.00;6221144;28;20414;-66
2022/08/07 13:53:52;;;;;;;;;;;;;;;31.57;24.93;97041.72;6221582;28;19925;-65
2022/08/07 13:56:58;;;;;;;;;;;;;;;31.47;24.85;97039.53;6221324;28;19931;-65
2022/08/07 14:00:02;;;;;;;;;;;;;;;31.49;24.79;97038.22;6221088;28;19926;-66
2022/08/07 14:03:07;;;;;;;;;;;;;;;31.62;24.91;97047.28;6221444;28;19937;-65
2022/08/07 14:06:11;;;;;;;;;;;;;;;31.58;24.91;97046.09;6221686;28;20403;-65
2022/08/07 14:09:22;;;;;;;;;;;;;;;31.55;25.15;97047.38;6221341;28;20024;-66
2022/08/07 14:12:36;;;;;;;;;;;;;;;31.56;25.17;97046.31;6221020;28;19925;-66
2022/08/07 14:15:42;;;;;;;;;;;;;;;31.37;25.44;97044.69;6221286;28;19926;-65
2022/08/07 14:18:50;;;;;;;;;;;;;;;31.16;25.76;97044.03;6221160;28;20426;-65
2022/08/07 14:21:57;;;;;;;;;;;;;;;30.89;25.72;97040.78;6221260;28;19926;-65
2022/08/07 14:25:00;;;;;;;;;;;;;;;30.78;25.95;97036.03;6221245;28;20007;-66
2022/08/07 14:28:05;;;;;;;;;;;;;;;30.63;26.09;97039.94;6221166;28;19925;-65
2022/08/07 14:31:09;;;;;;;;;;;;;;;30.48;26.75;97046.75;6221334;28;19934;-65
2022/08/07 14:34:13;;;;;;;;;;;;;;;30.14;27.18;97044.25;6221042;28;19932;-67
2022/08/07 14:37:21;;;;;;;;;;;;;;;29.82;27.51;97042.59;6221387;28;20319;-65
2022/08/07 14:40:28;;;;;;;;;;;;;;;29.61;27.84;97041.84;6225697;28;19932;-66
2022/08/07 14:43:33;;;;;;;;;;;;;;;29.36;28.17;97046.34;6224969;28;19921;-65
2022/08/07 14:46:41;;;;;;;;;;;;;;;29.08;28.51;97045.56;6226103;28;19925;-65
2022/08/07 14:49:42;;;;;;;;;;;;;;;28.90;28.83;97048.06;6226053;28;19937;-65
2022/08/07 14:52:44;;;;;;;;;;;;;;;28.82;29.25;97042.91;6225769;28;20029;-66
2022/08/07 14:55:48;;;;;;;;;;;;;;;28.65;29.63;97047.94;6225811;28;19925;-65
2022/08/07 14:58:53;;;;;;;;;;;;;;;28.39;30.04;97048.72;6225183;28;20315;-65
2022/08/07 15:01:59;;;;;;;;;;;;;;;28.17;29.99;97057.03;6225372;28;19925;-66
2022/08/07 15:05:04;;;;;;;;;;;;;;;28.04;30.47;97057.00;6225464;28;19925;-66
2022/08/07 15:08:09;;;;;;;;;;;;;;;27.93;30.58;97060.31;6225254;28;19932;-65
2022/08/07 15:11:13;;;;;;;;;;;;;;;27.81;30.72;97056.56;6225168;28;20354;-66
2022/08/07 15:14:21;;;;;;;;;;;;;;;27.73;31.05;97055.66;6225213;28;20490;-65
2022/08/07 15:17:34;;;;;;;;;;;;;;;27.63;31.14;97060.63;6225125;28;19925;-66
2022/08/07 15:20:37;;;;;;;;;;;;;;;27.46;31.04;97048.47;6223765;28;19925;-65
2022/08/07 15:23:41;;;;;;;;;;;;;;;27.36;31.24;97058.84;6224724;28;19988;-66
2022/08/07 15:26:56;;;;;;;;;;;;;;;27.28;31.47;97062.53;6223902;28;20415;-65
2022/08/07 15:30:00;;;;;;;;;;;;;;;27.18;31.59;97060.22;6224484;28;19936;-66
2022/08/07 15:33:04;;;;;;;;;;;;;;;27.06;31.56;97061.78;6224939;28;19925;-65
2022/08/07 15:36:08;;;;;;;;;;;;;;;26.95;31.64;97063.19;6224519;28;19925;-66
2022/08/07 15:39:12;;;;;;;;;;;;;;;26.85;32.02;97062.69;6224191;28;19925;-65
2022/08/07 15:42:34;;;;;;;;;;;;;;;26.77;32.18;97063.66;6224756;28;19925;-66
2022/08/07 15:45:40;;;;;;;;;;;;;;;26.66;32.19;97066.91;6224125;28;20463;-66
2022/08/07 15:48:46;;;;;;;;;;;;;;;26.57;32.46;97066.22;6223400;28;19932;-66
2022/08/07 15:51:48;;;;;;;;;;;;;;;26.50;33.03;97070.75;6223766;28;19948;-65
2022/08/07 15:54:55;;;;;;;;;;;;;;;26.39;32.88;97077.47;6223899;28;19925;-66
2022/08/07 15:58:05;;;;;;;;;;;;;;;26.32;33.04;97087.34;6223801;28;19957;-66
2022/08/07 16:01:14;;;;;;;;;;;;;;;26.28;34.34;97090.66;6224037;28;19937;-66
2022/08/07 16:04:16;;;;;;;;;;;;;;;26.14;33.83;97095.06;6224007;28;19932;-66
2022/08/07 16:07:24;;;;;;;;;;;;;;;26.04;34.18;97087.28;6224207;28;19933;-66
2022/08/07 16:10:27;;;;;;;;;;;;;;;25.90;34.47;97091.72;6223358;28;19925;-66
2022/08/07 16:13:53;;;;;;;;;;;;;;;25.74;34.51;97092.75;6223464;28;20307;-66
2022/08/07 16:17:06;;;;;;;;;;;;;;;25.69;35.00;97099.75;6217053;28;20314;-66
2022/08/07 16:20:19;;;;;;;;;;;;;;;25.57;35.03;97095.88;6223321;28;20311;-64
2022/08/07 16:23:29;;;;;;;;;;;;;;;25.44;34.96;97102.75;6223644;28;20298;-65
2022/08/07 16:26:32;;;;;;;;;;;;;;;25.34;34.99;97098.69;6223930;28;20304;-67
2022/08/07 16:29:52;;;;;;;;;;;;;;;25.29;35.84;97099.25;6223755;28;20019;-66